createdAt,value
2019-05-07T00:00:45.285Z,82.60
2019-05-07T00:03:14.794Z,84.10
2019-05-07T00:05:44.075Z,83.40
2019-05-07T00:08:13.447Z,81.90
2019-05-07T00:10:42.795Z,81.90
2019-05-07T00:13:12.887Z,81.10
2019-05-07T00:15:42.527Z,81.70
2019-05-07T00:18:12.707Z,80.70
2019-05-07T00:20:43.429Z,79.90
2019-05-07T00:23:12.814Z,80.20
2019-05-07T00:25:42.368Z,80.00
2019-05-07T00:28:12.329Z,80.60
2019-05-07T00:30:42.513Z,80.30
2019-05-07T00:33:13.181Z,79.40
2019-05-07T00:35:45.450Z,79.60
2019-05-07T00:38:16.487Z,80.20
2019-05-07T00:40:59.810Z,79.70
2019-05-07T00:43:32.216Z,80.00
2019-05-07T00:46:03.372Z,80.50
2019-05-07T00:48:33.030Z,81.30
2019-05-07T00:51:22.483Z,80.70
2019-05-07T00:53:52.107Z,81.20
2019-05-07T00:56:22.395Z,81.50
2019-05-07T00:58:52.762Z,81.90
2019-05-07T01:01:22.828Z,81.90
2019-05-07T01:03:53.411Z,81.90
2019-05-07T01:06:26.358Z,82.30
2019-05-07T01:08:54.302Z,82.50
2019-05-07T01:11:23.655Z,82.00
2019-05-07T01:13:53.044Z,82.90
2019-05-07T01:16:22.391Z,82.90
2019-05-07T01:18:53.797Z,83.00
2019-05-07T01:21:23.001Z,83.60
2019-05-07T01:23:52.390Z,83.00
2019-05-07T01:26:22.131Z,82.60
2019-05-07T01:29:02.913Z,82.30
2019-05-07T01:31:37.630Z,84.00
2019-05-07T01:34:12.147Z,82.70
2019-05-07T01:36:42.746Z,82.60
2019-05-07T01:39:13.070Z,82.80
2019-05-07T01:41:43.543Z,83.00
2019-05-07T01:44:12.919Z,82.30
2019-05-07T01:46:42.408Z,82.10
2019-05-07T01:49:12.566Z,82.60
2019-05-07T01:51:42.404Z,82.40
2019-05-07T01:54:12.962Z,83.30
2019-05-07T01:56:43.439Z,82.90
2019-05-07T01:59:12.799Z,82.60
2019-05-07T02:01:43.662Z,82.60
2019-05-07T02:04:29.714Z,82.90
2019-05-07T02:07:06.489Z,82.30
2019-05-07T02:09:38.460Z,81.90
2019-05-07T02:12:15.652Z,81.50
2019-05-07T02:14:45.185Z,81.50
2019-05-07T02:17:14.786Z,81.50
2019-05-07T02:19:44.170Z,81.60
2019-05-07T02:22:13.545Z,82.30
2019-05-07T02:24:43.419Z,81.20
2019-05-07T02:27:13.037Z,81.30
2019-05-07T02:29:43.048Z,81.40
2019-05-07T02:32:13.323Z,81.70
2019-05-07T02:34:44.206Z,81.60
2019-05-07T02:37:15.557Z,82.10
2019-05-07T02:40:04.935Z,82.20
2019-05-07T02:42:34.338Z,82.70
2019-05-07T02:45:06.225Z,82.80
2019-05-07T02:47:35.940Z,82.80
2019-05-07T02:50:16.559Z,82.80
2019-05-07T02:52:53.334Z,82.70
2019-05-07T02:55:39.827Z,83.60
2019-05-07T02:58:09.261Z,82.90
2019-05-07T03:00:38.689Z,82.60
2019-05-07T03:03:08.127Z,82.50
2019-05-07T03:05:37.722Z,82.90
2019-05-07T03:08:08.635Z,82.80
2019-05-07T03:10:37.971Z,82.70
2019-05-07T03:13:07.291Z,83.70
2019-05-07T03:15:36.629Z,84.30
2019-05-07T03:18:06.048Z,83.40
2019-05-07T03:20:44.753Z,82.90
2019-05-07T03:23:15.812Z,82.50
2019-05-07T03:25:49.592Z,82.20
2019-05-07T03:28:23.199Z,82.00
2019-05-07T03:30:56.883Z,81.60
2019-05-07T03:33:27.008Z,82.10
2019-05-07T03:35:58.281Z,81.10
2019-05-07T03:38:27.713Z,80.50
2019-05-07T03:40:57.096Z,80.10
2019-05-07T03:43:27.003Z,80.00
2019-05-07T03:45:57.967Z,79.70
2019-05-07T03:48:28.916Z,79.00
2019-05-07T03:50:58.308Z,78.90
2019-05-07T03:53:27.631Z,79.00
2019-05-07T03:55:56.989Z,79.30
2019-05-07T03:58:26.303Z,78.40
2019-05-07T04:00:55.663Z,78.60
2019-05-07T04:03:25.079Z,77.70
2019-05-07T04:05:54.516Z,77.70
2019-05-07T04:08:24.066Z,77.60
2019-05-07T04:10:54.123Z,77.40
2019-05-07T04:13:24.330Z,77.60
2019-05-07T04:15:54.038Z,76.90
2019-05-07T04:18:23.997Z,75.70
2019-05-07T04:20:54.547Z,76.20
2019-05-07T04:23:24.833Z,74.70
2019-05-07T04:25:56.193Z,73.90
2019-05-07T04:28:33.732Z,73.80
2019-05-07T04:31:03.693Z,73.00
2019-05-07T04:33:34.760Z,73.30
2019-05-07T04:36:14.696Z,72.90
2019-05-07T04:38:44.315Z,73.50
2019-05-07T04:41:14.111Z,73.30
2019-05-07T04:43:44.593Z,73.20
2019-05-07T04:46:14.536Z,73.60
2019-05-07T04:48:44.326Z,72.50
2019-05-07T04:51:16.476Z,72.80
2019-05-07T04:53:45.854Z,73.20
2019-05-07T04:56:15.224Z,73.30
2019-05-07T04:58:44.655Z,73.20
2019-05-07T05:01:15.672Z,73.20
2019-05-07T05:03:45.024Z,73.40
2019-05-07T05:06:14.448Z,73.20
2019-05-07T05:08:43.892Z,73.90
2019-05-07T05:11:13.285Z,74.30
2019-05-07T05:13:44.731Z,74.20
2019-05-07T05:16:25.367Z,73.90
2019-05-07T05:18:56.204Z,73.90
2019-05-07T05:21:39.248Z,73.60
2019-05-07T05:24:12.489Z,73.80
2019-05-07T05:26:41.887Z,73.40
2019-05-07T05:29:12.147Z,73.00
2019-05-07T05:31:42.662Z,73.00
2019-05-07T05:34:13.067Z,73.00
2019-05-07T05:36:43.756Z,72.40
2019-05-07T05:39:13.346Z,72.60
2019-05-07T05:41:44.839Z,73.00
2019-05-07T05:44:15.843Z,73.10
2019-05-07T05:46:45.175Z,73.60
2019-05-07T05:49:14.538Z,72.80
2019-05-07T05:51:52.498Z,73.20
2019-05-07T05:54:32.496Z,72.00
2019-05-07T05:57:20.178Z,72.60
2019-05-07T06:00:02.126Z,71.80
2019-05-07T06:02:35.835Z,72.50
2019-05-07T06:05:24.479Z,72.00
2019-05-07T06:08:13.669Z,71.90
2019-05-07T06:10:44.659Z,71.90
2019-05-07T06:13:24.938Z,71.80
2019-05-07T06:16:12.534Z,72.80
2019-05-07T06:18:55.685Z,72.90
2019-05-07T06:21:26.681Z,73.20
2019-05-07T06:23:57.748Z,72.00
2019-05-07T06:26:27.078Z,72.80
2019-05-07T06:28:56.444Z,71.50
2019-05-07T06:31:25.867Z,71.60
2019-05-07T06:33:55.268Z,71.30
2019-05-07T06:36:24.623Z,72.50
2019-05-07T06:38:58.535Z,71.40
2019-05-07T06:41:45.971Z,71.20
2019-05-07T06:44:16.979Z,70.60
2019-05-07T06:46:46.367Z,68.90
2019-05-07T06:49:15.695Z,69.40
2019-05-07T06:51:47.720Z,69.30
2019-05-07T06:54:16.084Z,68.90
2019-05-07T06:56:45.419Z,67.10
2019-05-07T06:59:16.552Z,67.20
2019-05-07T07:01:52.822Z,67.50
2019-05-07T07:04:23.178Z,67.40
2019-05-07T07:06:54.320Z,67.40
2019-05-07T07:09:28.252Z,68.50
2019-05-07T07:11:59.234Z,68.40
2019-05-07T07:14:28.551Z,69.50
2019-05-07T07:16:57.878Z,70.00
2019-05-07T07:19:27.216Z,69.10
2019-05-07T07:21:56.576Z,68.40
2019-05-07T07:24:25.930Z,68.30
2019-05-07T07:26:55.334Z,68.00
2019-05-07T07:29:26.339Z,67.70
2019-05-07T07:32:09.440Z,65.90
2019-05-07T07:34:42.529Z,64.50
2019-05-07T07:37:22.945Z,64.20
2019-05-07T07:39:54.135Z,62.60
2019-05-07T07:42:23.495Z,64.80
2019-05-07T07:44:54.472Z,66.60
2019-05-07T07:47:23.935Z,64.90
2019-05-07T07:49:53.355Z,66.00
2019-05-07T07:52:23.055Z,64.10
2019-05-07T07:54:53.013Z,66.70
2019-05-07T07:57:42.621Z,67.20
2019-05-07T08:00:13.463Z,67.40
2019-05-07T08:02:44.430Z,68.10
2019-05-07T08:05:13.934Z,68.50
2019-05-07T08:07:43.291Z,69.40
2019-05-07T08:10:13.266Z,70.40
2019-05-07T08:12:42.723Z,70.70
2019-05-07T08:15:18.077Z,72.90
2019-05-07T08:17:43.626Z,76.10
2019-05-07T08:20:13.582Z,77.40
2019-05-07T08:22:42.952Z,78.20
2019-05-07T08:25:12.652Z,79.90
2019-05-07T08:27:42.158Z,80.60
2019-05-07T08:30:13.684Z,80.70
2019-05-07T08:32:53.362Z,80.30
2019-05-07T08:35:27.251Z,81.80
2019-05-07T08:37:56.680Z,80.80
2019-05-07T08:40:26.006Z,81.60
2019-05-07T08:42:56.303Z,80.80
2019-05-07T08:45:43.929Z,79.90
2019-05-07T08:48:14.915Z,79.40
2019-05-07T08:50:44.237Z,78.00
2019-05-07T08:53:14.570Z,75.70
2019-05-07T08:55:43.959Z,74.40
2019-05-07T08:58:13.290Z,72.40
2019-05-07T09:00:42.632Z,75.70
2019-05-07T09:03:20.121Z,74.60
2019-05-07T09:05:42.990Z,76.20
2019-05-07T09:08:12.890Z,74.30
2019-05-07T09:10:42.494Z,73.10
2019-05-07T09:13:12.882Z,71.20
2019-05-07T09:15:42.599Z,69.50
2019-05-07T09:18:12.469Z,69.50
2019-05-07T09:20:42.550Z,70.20
2019-05-07T09:23:12.349Z,70.80
2019-05-07T09:25:48.705Z,72.50
2019-05-07T09:28:19.472Z,69.90
2019-05-07T09:30:56.486Z,70.10
2019-05-07T09:33:33.419Z,68.30
2019-05-07T09:36:02.861Z,68.10
2019-05-07T09:38:32.798Z,69.40
2019-05-07T09:41:02.744Z,70.00
2019-05-07T09:43:32.617Z,70.50
2019-05-07T09:46:02.732Z,70.50
2019-05-07T09:48:33.824Z,70.80
2019-05-07T09:51:03.385Z,70.70
2019-05-07T09:53:32.751Z,72.50
2019-05-07T09:56:02.290Z,71.60
2019-05-07T09:58:36.673Z,69.80
2019-05-07T10:01:02.842Z,70.80
2019-05-07T10:03:32.561Z,71.40
2019-05-07T10:06:02.342Z,72.10
2019-05-07T10:08:33.034Z,71.40
2019-05-07T10:11:05.051Z,71.70
2019-05-07T10:13:52.367Z,70.80
2019-05-07T10:16:23.504Z,68.50
2019-05-07T10:18:52.980Z,68.20
2019-05-07T10:21:22.379Z,66.80
2019-05-07T10:23:52.179Z,66.70
2019-05-07T10:26:22.646Z,65.70
2019-05-07T10:28:52.901Z,64.70
2019-05-07T10:31:22.422Z,66.30
2019-05-07T10:33:52.387Z,67.50
2019-05-07T10:36:22.877Z,67.40
2019-05-07T10:38:52.362Z,66.00
2019-05-07T10:41:22.377Z,66.00
2019-05-07T10:43:52.053Z,66.00
2019-05-07T10:46:39.656Z,65.10
2019-05-07T10:49:13.302Z,66.60
2019-05-07T10:51:42.700Z,65.40
2019-05-07T10:54:12.613Z,66.20
2019-05-07T10:56:42.038Z,66.80
2019-05-07T10:59:12.178Z,66.50
2019-05-07T11:01:43.478Z,66.10
2019-05-07T11:04:12.911Z,65.10
2019-05-07T11:06:42.347Z,65.00
2019-05-07T11:09:11.715Z,67.90
2019-05-07T11:11:42.343Z,69.10
2019-05-07T11:14:12.299Z,70.00
2019-05-07T11:16:46.898Z,67.60
2019-05-07T11:19:18.800Z,64.10
2019-05-07T11:21:48.019Z,66.50
2019-05-07T11:24:17.391Z,67.00
2019-05-07T11:26:46.817Z,65.60
2019-05-07T11:29:16.188Z,63.50
2019-05-07T11:31:45.515Z,62.70
2019-05-07T11:34:14.838Z,61.10
2019-05-07T11:36:44.190Z,63.00
2019-05-07T11:39:13.594Z,63.40
2019-05-07T11:42:02.371Z,62.80
2019-05-07T11:44:32.795Z,62.20
2019-05-07T11:47:19.954Z,61.70
2019-05-07T11:50:07.142Z,63.50
2019-05-07T11:52:38.117Z,63.00
2019-05-07T11:55:07.713Z,62.10
2019-05-07T11:57:37.159Z,59.50
2019-05-07T12:00:09.831Z,59.50
2019-05-07T12:02:39.277Z,58.50
2019-05-07T12:05:08.936Z,58.00
2019-05-07T12:07:38.343Z,57.40
2019-05-07T12:10:07.738Z,57.80
2019-05-07T12:12:38.747Z,58.10
2019-05-07T12:15:08.234Z,58.50
2019-05-07T12:17:37.574Z,59.00
2019-05-07T12:20:07.587Z,59.50
2019-05-07T12:22:48.981Z,59.70
2019-05-07T12:25:22.110Z,60.00
2019-05-07T12:27:52.797Z,61.40
2019-05-07T12:30:25.044Z,57.00
2019-05-07T12:33:12.454Z,56.70
2019-05-07T12:35:42.142Z,55.60
2019-05-07T12:38:12.816Z,55.70
2019-05-07T12:40:42.994Z,54.10
2019-05-07T12:43:12.335Z,54.30
2019-05-07T12:45:42.093Z,54.90
2019-05-07T12:48:14.308Z,55.10
2019-05-07T12:50:43.777Z,54.90
2019-05-07T12:53:14.777Z,55.90
2019-05-07T12:55:45.818Z,54.50
2019-05-07T12:58:15.142Z,54.60
2019-05-07T13:00:48.822Z,52.20
2019-05-07T13:03:36.356Z,51.60
2019-05-07T13:06:05.755Z,53.00
2019-05-07T13:08:35.116Z,54.80
2019-05-07T13:11:04.612Z,54.10
2019-05-07T13:13:33.973Z,53.10
2019-05-07T13:16:03.420Z,52.60
2019-05-07T13:18:32.748Z,52.80
2019-05-07T13:21:02.567Z,53.00
2019-05-07T13:23:32.035Z,52.10
2019-05-07T13:26:02.604Z,50.30
2019-05-07T13:28:32.269Z,49.90
2019-05-07T13:31:02.347Z,52.10
2019-05-07T13:33:34.619Z,50.60
2019-05-07T13:36:04.779Z,48.90
2019-05-07T13:38:39.183Z,48.30
2019-05-07T13:41:18.556Z,49.20
2019-05-07T13:44:03.511Z,49.40
2019-05-07T13:46:35.647Z,50.40
2019-05-07T13:49:05.307Z,48.60
2019-05-07T13:51:35.007Z,47.30
2019-05-07T13:54:04.637Z,49.70
2019-05-07T13:56:33.992Z,50.90
2019-05-07T13:59:05.087Z,51.30
2019-05-07T14:01:37.312Z,50.50
2019-05-07T14:04:06.631Z,47.60
2019-05-07T14:06:39.110Z,49.70
2019-05-07T14:09:12.294Z,51.40
2019-05-07T14:11:42.308Z,51.30
2019-05-07T14:14:12.366Z,52.20
2019-05-07T14:16:44.669Z,52.20
2019-05-07T14:19:13.152Z,52.10
2019-05-07T14:21:42.652Z,50.20
2019-05-07T14:24:14.701Z,52.10
2019-05-07T14:26:43.007Z,51.90
2019-05-07T14:29:12.418Z,49.70
2019-05-07T14:31:42.634Z,50.30
2019-05-07T14:34:25.984Z,50.60
2019-05-07T14:37:04.734Z,49.30
2019-05-07T14:39:34.351Z,46.50
2019-05-07T14:42:08.947Z,47.90
2019-05-07T14:44:48.558Z,46.50
2019-05-07T14:47:18.828Z,46.70
2019-05-07T14:49:52.682Z,46.90
2019-05-07T14:52:30.109Z,46.90
2019-05-07T14:54:52.450Z,48.40
2019-05-07T14:57:22.206Z,48.70
2019-05-07T14:59:52.458Z,49.30
2019-05-07T15:02:23.619Z,49.10
2019-05-07T15:04:53.477Z,48.80
2019-05-07T15:07:23.027Z,48.60
2019-05-07T15:09:52.960Z,51.60
2019-05-07T15:12:23.351Z,48.90
2019-05-07T15:14:53.021Z,50.10
2019-05-07T15:17:42.029Z,49.00
2019-05-07T15:20:12.403Z,48.70
2019-05-07T15:23:02.546Z,46.30
2019-05-07T15:25:32.566Z,47.00
2019-05-07T15:28:02.067Z,46.90
2019-05-07T15:30:41.780Z,46.20
2019-05-07T15:33:12.753Z,46.30
2019-05-07T15:35:42.550Z,48.20
2019-05-07T15:38:11.963Z,45.30
2019-05-07T15:40:42.238Z,47.10
2019-05-07T15:43:12.886Z,45.80
2019-05-07T15:45:42.433Z,44.10
2019-05-07T15:48:12.715Z,45.40
2019-05-07T15:50:42.876Z,45.40
2019-05-07T15:53:17.279Z,47.90
2019-05-07T15:55:46.702Z,44.50
2019-05-07T15:58:16.144Z,45.30
2019-05-07T16:00:45.559Z,46.10
2019-05-07T16:03:17.190Z,46.00
2019-05-07T16:05:46.506Z,45.80
2019-05-07T16:08:17.238Z,46.60
2019-05-07T16:10:47.530Z,47.80
2019-05-07T16:13:22.975Z,46.40
2019-05-07T16:15:52.947Z,47.20
2019-05-07T16:18:34.531Z,47.40
2019-05-07T16:21:05.001Z,46.80
2019-05-07T16:23:34.781Z,48.90
2019-05-07T16:26:05.310Z,47.30
2019-05-07T16:28:35.894Z,46.80
2019-05-07T16:31:05.247Z,48.50
2019-05-07T16:33:34.839Z,49.40
2019-05-07T16:36:04.712Z,48.50
2019-05-07T16:38:34.026Z,48.50
2019-05-07T16:41:03.391Z,46.80
2019-05-07T16:43:33.722Z,46.50
2019-05-07T16:46:03.111Z,47.70
2019-05-07T16:48:32.834Z,45.30
2019-05-07T16:51:02.405Z,47.50
2019-05-07T16:53:34.991Z,47.30
2019-05-07T16:56:03.052Z,46.10
2019-05-07T16:58:43.265Z,47.40
2019-05-07T17:01:14.293Z,47.60
2019-05-07T17:03:52.083Z,48.70
2019-05-07T17:06:24.748Z,47.80
2019-05-07T17:08:54.533Z,47.70
2019-05-07T17:11:23.887Z,47.10
2019-05-07T17:13:53.323Z,49.40
2019-05-07T17:16:22.954Z,49.40
2019-05-07T17:18:52.483Z,48.10
2019-05-07T17:21:21.953Z,49.60
2019-05-07T17:23:51.920Z,50.00
2019-05-07T17:26:23.182Z,48.80
2019-05-07T17:28:53.952Z,48.90
2019-05-07T17:31:23.349Z,49.70
2019-05-07T17:33:52.713Z,52.20
2019-05-07T17:36:22.462Z,48.30
2019-05-07T17:38:52.944Z,52.40
2019-05-07T17:41:26.820Z,53.20
2019-05-07T17:43:53.358Z,54.10
2019-05-07T17:46:23.690Z,55.30
2019-05-07T17:48:53.978Z,53.50
2019-05-07T17:51:42.203Z,52.60
2019-05-07T17:54:13.524Z,53.30
2019-05-07T17:56:44.265Z,52.20
2019-05-07T17:59:13.821Z,54.90
2019-05-07T18:01:52.894Z,53.90
2019-05-07T18:04:21.574Z,54.70
2019-05-07T18:06:52.192Z,55.40
2019-05-07T18:09:22.600Z,55.70
2019-05-07T18:11:52.404Z,56.50
2019-05-07T18:14:23.246Z,58.00
2019-05-07T18:16:59.470Z,56.50
2019-05-07T18:19:32.941Z,57.70
2019-05-07T18:22:02.641Z,58.10
2019-05-07T18:24:33.196Z,59.00
2019-05-07T18:27:04.500Z,60.50
2019-05-07T18:29:34.863Z,60.90
2019-05-07T18:32:05.996Z,61.00
2019-05-07T18:34:35.390Z,60.60
2019-05-07T18:39:33.588Z,62.50
2019-05-07T18:42:03.024Z,62.60
2019-05-07T18:44:32.443Z,64.40
2019-05-07T18:47:02.369Z,64.90
2019-05-07T18:49:31.989Z,66.20
2019-05-07T18:52:02.938Z,65.50
2019-05-07T18:54:32.472Z,67.10
2019-05-07T18:57:02.876Z,66.90
2019-05-07T18:59:33.962Z,68.20
2019-05-07T19:02:03.635Z,67.60
2019-05-07T19:04:33.059Z,68.10
2019-05-07T19:07:02.710Z,67.40
2019-05-07T19:09:32.258Z,67.80
2019-05-07T19:12:01.675Z,67.80
2019-05-07T19:14:33.315Z,67.90
2019-05-07T19:17:03.175Z,68.80
2019-05-07T19:19:32.924Z,69.10
2019-05-07T19:22:02.333Z,67.80
2019-05-07T19:24:44.316Z,67.80
2019-05-07T19:27:02.694Z,69.80
2019-05-07T19:29:33.115Z,68.20
2019-05-07T19:32:03.180Z,68.10
2019-05-07T19:34:33.686Z,67.80
2019-05-07T19:37:03.019Z,69.80
2019-05-07T19:39:32.625Z,68.90
2019-05-07T19:42:02.708Z,68.20
2019-05-07T19:44:32.215Z,67.80
2019-05-07T19:47:02.095Z,69.50
2019-05-07T19:49:32.441Z,68.20
2019-05-07T19:52:02.087Z,68.30
2019-05-07T19:54:32.432Z,69.20
2019-05-07T19:57:02.711Z,70.00
2019-05-07T19:59:32.724Z,68.90
2019-05-07T20:02:03.908Z,68.80
2019-05-07T20:04:33.223Z,68.90
2019-05-07T20:07:02.902Z,69.80
2019-05-07T20:09:34.019Z,70.10
2019-05-07T20:12:03.362Z,69.10
2019-05-07T20:14:33.275Z,70.20
2019-05-07T20:17:02.899Z,69.20
2019-05-07T20:19:32.852Z,69.80
2019-05-07T20:22:03.571Z,68.70
2019-05-07T20:24:33.240Z,70.00
2019-05-07T20:27:03.149Z,72.00
2019-05-07T20:29:32.795Z,72.30
2019-05-07T20:32:02.224Z,72.60
2019-05-07T20:34:32.946Z,72.00
2019-05-07T20:37:03.071Z,72.30
2019-05-07T20:39:33.505Z,72.80
2019-05-07T20:42:03.188Z,72.30
2019-05-07T20:44:33.669Z,71.80
2019-05-07T20:47:03.063Z,71.30
2019-05-07T20:49:32.428Z,71.50
2019-05-07T20:52:01.818Z,72.50
2019-05-07T20:54:36.583Z,72.20
2019-05-07T20:57:07.610Z,73.70
2019-05-07T20:59:36.987Z,73.60
2019-05-07T21:02:06.512Z,73.00
2019-05-07T21:04:35.808Z,72.10
2019-05-07T21:07:05.138Z,72.50
2019-05-07T21:09:34.468Z,73.10
2019-05-07T21:12:03.803Z,72.80
2019-05-07T21:14:33.134Z,73.50
2019-05-07T21:17:02.460Z,72.50
2019-05-07T21:19:33.182Z,72.40
2019-05-07T21:22:02.759Z,72.80
2019-05-07T21:24:33.076Z,72.50
2019-05-07T21:27:02.779Z,71.50
2019-05-07T21:29:32.771Z,71.80
2019-05-07T21:32:03.334Z,71.50
2019-05-07T21:34:32.798Z,73.00
2019-05-07T21:37:03.248Z,73.70
2019-05-07T21:39:33.135Z,74.30
2019-05-07T21:42:02.735Z,75.00
2019-05-07T21:44:32.585Z,75.30
2019-05-07T21:47:03.900Z,75.60
2019-05-07T21:49:33.255Z,75.00
2019-05-07T21:52:02.610Z,75.00
2019-05-07T21:54:33.683Z,75.90
2019-05-07T21:57:04.650Z,74.70
2019-05-07T21:59:35.936Z,75.70
2019-05-07T22:02:08.260Z,75.50
2019-05-07T22:04:37.684Z,75.20
2019-05-07T22:07:07.206Z,75.60
2019-05-07T22:09:36.529Z,76.40
2019-05-07T22:12:05.880Z,76.90
2019-05-07T22:14:35.286Z,76.70
2019-05-07T22:17:05.315Z,76.60
2019-05-07T22:19:34.675Z,77.50
2019-05-07T22:22:04.242Z,77.40
2019-05-07T22:24:33.605Z,77.90
2019-05-07T22:27:04.191Z,78.10
2019-05-07T22:29:33.847Z,78.10
2019-05-07T22:32:04.811Z,77.80
2019-05-07T22:34:35.779Z,79.00
2019-05-07T22:37:06.252Z,78.90
2019-05-07T22:39:43.184Z,77.80
2019-05-07T22:42:17.043Z,77.10
2019-05-07T22:44:46.403Z,77.70
2019-05-07T22:47:18.732Z,78.50
2019-05-07T22:49:49.876Z,78.30
2019-05-07T22:52:19.383Z,78.60
2019-05-07T22:54:48.804Z,77.10
2019-05-07T22:57:22.954Z,76.90
2019-05-07T22:59:52.388Z,76.50
2019-05-07T23:02:22.783Z,77.40
2019-05-07T23:04:53.295Z,77.90
2019-05-07T23:07:22.659Z,78.30
2019-05-07T23:09:52.310Z,78.70
2019-05-07T23:12:22.784Z,80.90
2019-05-07T23:14:53.731Z,78.80
2019-05-07T23:17:23.333Z,78.10
2019-05-07T23:19:55.065Z,79.20
2019-05-07T23:22:23.730Z,79.10
2019-05-07T23:24:53.087Z,78.70
2019-05-07T23:27:22.624Z,79.20
2019-05-07T23:29:52.919Z,78.70
2019-05-07T23:32:22.554Z,80.10
2019-05-07T23:34:52.703Z,79.70
2019-05-07T23:37:22.597Z,80.30
2019-05-07T23:39:53.755Z,80.00
2019-05-07T23:42:24.939Z,79.80
2019-05-07T23:44:54.178Z,80.50
2019-05-07T23:47:24.584Z,80.50
2019-05-07T23:49:53.906Z,79.80
2019-05-07T23:52:23.309Z,78.70
2019-05-07T23:54:52.697Z,79.50
2019-05-07T23:57:23.116Z,79.70
2019-05-07T23:59:53.033Z,80.30
